createdAt,value
2018-05-27T00:00:16.054Z,-71
2018-05-27T00:10:16.277Z,-71
2018-05-27T00:20:16.131Z,-71
2018-05-27T00:30:15.932Z,-70
2018-05-27T00:40:16.004Z,-70
2018-05-27T00:50:15.978Z,-71
2018-05-27T01:00:15.907Z,-74
2018-05-27T01:10:15.837Z,-73
2018-05-27T01:20:16.122Z,-71
2018-05-27T01:30:16.719Z,-71
2018-05-27T01:40:16.198Z,-72
2018-05-27T01:50:16.030Z,-72
2018-05-27T02:00:16.749Z,-72
2018-05-27T02:10:15.942Z,-73
2018-05-27T02:20:15.884Z,-72
2018-05-27T02:30:15.944Z,-71
2018-05-27T02:40:15.884Z,-69
2018-05-27T02:50:16.666Z,-70
2018-05-27T03:00:15.929Z,-71
2018-05-27T03:10:15.830Z,-70
2018-05-27T03:20:15.940Z,-71
2018-05-27T03:30:15.909Z,-72
2018-05-27T03:40:15.870Z,-72
2018-05-27T03:50:15.955Z,-69
2018-05-27T04:00:15.862Z,-72
2018-05-27T04:10:15.823Z,-70
2018-05-27T04:20:15.953Z,-71
2018-05-27T04:30:15.959Z,-70
2018-05-27T04:40:15.982Z,-71
2018-05-27T04:50:15.934Z,-72
2018-05-27T05:00:15.839Z,-70
2018-05-27T05:10:15.941Z,-70
2018-05-27T05:20:15.932Z,-73
2018-05-27T05:30:16.022Z,-70
2018-05-27T05:40:17.529Z,-70
2018-05-27T05:50:15.888Z,-72
2018-05-27T06:00:15.988Z,-72
2018-05-27T06:10:15.919Z,-73
2018-05-27T06:20:15.913Z,-73
2018-05-27T06:30:15.912Z,-57
2018-05-27T06:40:15.812Z,-56
2018-05-27T06:50:15.918Z,-58
2018-05-27T07:00:15.833Z,-58
2018-05-27T07:10:15.936Z,-58
2018-05-27T07:20:15.907Z,-59
2018-05-27T07:30:15.879Z,-58
2018-05-27T07:40:15.885Z,-59
2018-05-27T07:50:15.922Z,-60
2018-05-27T08:00:15.967Z,-60
2018-05-27T08:10:15.961Z,-59
2018-05-27T08:20:15.978Z,-59
2018-05-27T08:30:15.980Z,-59
2018-05-27T08:40:16.282Z,-59
2018-05-27T08:50:16.165Z,-59
2018-05-27T09:00:16.210Z,-60
2018-05-27T09:10:16.109Z,-59
2018-05-27T09:20:16.433Z,-59
2018-05-27T09:30:15.944Z,-58
2018-05-27T09:40:16.008Z,-58
2018-05-27T09:50:16.795Z,-58
2018-05-27T10:00:16.811Z,-58
2018-05-27T10:10:16.013Z,-59
2018-05-27T10:20:16.364Z,-56
2018-05-27T10:30:16.228Z,-59
2018-05-27T10:40:16.249Z,-58
2018-05-27T10:50:16.060Z,-59
2018-05-27T11:00:16.187Z,-59
2018-05-27T11:10:16.020Z,-57
2018-05-27T11:20:16.122Z,-58
2018-05-27T11:30:16.203Z,-58
2018-05-27T11:40:16.178Z,-58
2018-05-27T11:50:16.014Z,-59
2018-05-27T12:00:17.824Z,-58
2018-05-27T12:11:20.598Z,-57
2018-05-27T12:21:32.013Z,-58
2018-05-27T12:31:28.443Z,-57
2018-05-27T12:41:26.092Z,-57
2018-05-27T12:50:28.383Z,-55
2018-05-27T13:00:27.541Z,-56
2018-05-27T13:11:08.363Z,-54
2018-05-27T13:20:48.938Z,-55
2018-05-27T13:30:16.057Z,-57
2018-05-27T13:40:16.107Z,-58
2018-05-27T13:50:16.108Z,-58
2018-05-27T14:00:16.186Z,-54
2018-05-27T14:10:16.393Z,-58
2018-05-27T14:20:16.238Z,-57
2018-05-27T14:30:16.081Z,-58
2018-05-27T14:40:17.126Z,-58
2018-05-27T14:50:16.127Z,-57
2018-05-27T15:00:16.131Z,-57
2018-05-27T15:10:16.117Z,-59
2018-05-27T15:20:16.146Z,-57
2018-05-27T15:30:16.025Z,-58
2018-05-27T15:40:17.396Z,-68
2018-05-27T15:50:17.833Z,-69
2018-05-27T16:00:16.165Z,-67
2018-05-27T16:10:16.997Z,-68
2018-05-27T16:20:16.257Z,-69
2018-05-27T16:30:16.124Z,-68
2018-05-27T16:40:16.371Z,-68
2018-05-27T16:50:16.351Z,-69
2018-05-27T17:00:16.450Z,-68
2018-05-27T17:10:16.272Z,-69
2018-05-27T17:20:16.384Z,-69
2018-05-27T17:30:16.222Z,-69
2018-05-27T17:40:16.278Z,-71
2018-05-27T17:50:17.053Z,-71
2018-05-27T18:00:16.265Z,-70
2018-05-27T18:10:16.208Z,-71
2018-05-27T18:20:16.190Z,-71
2018-05-27T18:30:16.481Z,-68
2018-05-27T18:40:16.049Z,-65
2018-05-27T18:50:16.182Z,-72
2018-05-27T19:00:16.761Z,-66
2018-05-27T19:10:16.220Z,-67
2018-05-27T19:20:16.473Z,-67
2018-05-27T19:30:16.196Z,-69
2018-05-27T19:40:16.489Z,-67
2018-05-27T19:50:16.287Z,-65
2018-05-27T20:00:16.353Z,-64
2018-05-27T20:10:16.223Z,-64
2018-05-27T20:20:16.851Z,-63
2018-05-27T20:30:16.163Z,-64
2018-05-27T20:40:17.217Z,-63
2018-05-27T20:50:16.412Z,-64
2018-05-27T21:00:16.515Z,-63
2018-05-27T21:10:16.308Z,-69
2018-05-27T21:20:18.146Z,-65
2018-05-27T21:30:21.315Z,-68
2018-05-27T21:40:18.787Z,-66
2018-05-27T21:50:16.934Z,-69
2018-05-27T22:00:27.445Z,-68
2018-05-27T22:10:27.627Z,-67
2018-05-27T22:20:16.318Z,-67
2018-05-27T22:30:16.266Z,-68
2018-05-27T22:40:16.892Z,-67
2018-05-27T22:50:16.104Z,-68
2018-05-27T23:00:16.291Z,-69
2018-05-27T23:10:16.219Z,-67
2018-05-27T23:20:16.244Z,-68
2018-05-27T23:30:16.408Z,-68
2018-05-27T23:40:16.936Z,-65
2018-05-27T23:50:16.442Z,-69
